createdAt,value
2022-11-21T00:00:07.551Z,25.40
2022-11-21T00:01:07.894Z,24.00
2022-11-21T00:02:08.376Z,24.10
2022-11-21T00:03:08.562Z,23.70
2022-11-21T00:04:08.906Z,24.40
2022-11-21T00:05:09.217Z,24.90
2022-11-21T00:06:09.542Z,24.40
2022-11-21T00:07:09.961Z,23.10
2022-11-21T00:08:10.195Z,24.50
2022-11-21T00:09:10.608Z,23.80
2022-11-21T00:10:10.834Z,22.30
2022-11-21T00:11:11.150Z,23.90
2022-11-21T00:12:11.494Z,23.50
2022-11-21T00:13:11.804Z,23.40
2022-11-21T00:14:12.171Z,23.60
2022-11-21T00:15:12.472Z,24.00
2022-11-21T00:16:12.767Z,24.20
2022-11-21T00:17:13.089Z,24.40
2022-11-21T00:18:13.396Z,24.10
2022-11-21T00:19:13.724Z,26.20
2022-11-21T00:20:14.087Z,24.60
2022-11-21T00:21:14.372Z,24.70
2022-11-21T00:22:14.690Z,24.60
2022-11-21T00:23:15.021Z,24.50
2022-11-21T00:24:15.363Z,23.10
2022-11-21T00:25:15.731Z,24.70
2022-11-21T00:26:16.015Z,25.00
2022-11-21T00:27:16.362Z,24.80
2022-11-21T00:28:16.620Z,23.60
2022-11-21T00:29:16.914Z,23.30
2022-11-21T00:30:17.209Z,25.30
2022-11-21T00:31:17.533Z,24.70
2022-11-21T00:32:17.866Z,24.90
2022-11-21T00:33:18.169Z,24.70
2022-11-21T00:34:18.515Z,24.60
2022-11-21T00:35:18.806Z,24.70
2022-11-21T00:36:19.150Z,24.20
2022-11-21T00:37:19.500Z,24.20
2022-11-21T00:38:19.802Z,24.40
2022-11-21T00:39:20.126Z,24.10
2022-11-21T00:40:20.451Z,25.00
2022-11-21T00:41:20.859Z,24.60
2022-11-21T00:42:21.095Z,25.40
2022-11-21T00:43:21.416Z,24.10
2022-11-21T00:44:21.717Z,25.30
2022-11-21T00:45:24.501Z,24.20
2022-11-21T00:46:22.392Z,24.30
2022-11-21T00:47:22.685Z,23.90
2022-11-21T00:48:23.016Z,24.90
2022-11-21T00:49:23.385Z,23.70
2022-11-21T00:50:23.670Z,24.50
2022-11-21T00:51:23.991Z,25.30
2022-11-21T00:52:24.308Z,27.60
2022-11-21T00:53:24.623Z,28.50
2022-11-21T00:54:25.332Z,31.60
2022-11-21T00:55:25.270Z,36.50
2022-11-21T00:56:25.594Z,55.10
2022-11-21T00:57:25.952Z,40.40
2022-11-21T00:58:26.240Z,40.00
2022-11-21T00:59:26.584Z,41.50
2022-11-21T01:00:26.989Z,47.60
2022-11-21T01:01:27.300Z,33.60
2022-11-21T01:02:27.659Z,49.10
2022-11-21T01:03:27.898Z,43.60
2022-11-21T01:04:28.475Z,29.30
2022-11-21T01:05:28.533Z,32.10
2022-11-21T01:06:28.844Z,28.80
2022-11-21T01:07:29.257Z,26.70
2022-11-21T01:08:29.501Z,31.30
2022-11-21T01:09:29.786Z,28.60
2022-11-21T01:10:30.086Z,27.80
2022-11-21T01:11:30.401Z,29.90
2022-11-21T01:12:30.750Z,28.00
2022-11-21T01:13:31.082Z,27.70
2022-11-21T01:14:31.388Z,28.10
2022-11-21T01:15:31.672Z,28.60
2022-11-21T01:16:31.985Z,27.50
2022-11-21T01:17:32.328Z,28.30
2022-11-21T01:18:32.690Z,27.80
2022-11-21T01:19:32.923Z,28.70
2022-11-21T01:20:33.229Z,27.40
2022-11-21T01:21:33.564Z,31.20
2022-11-21T01:22:33.848Z,37.20
2022-11-21T01:23:34.215Z,32.50
2022-11-21T01:24:34.459Z,35.10
2022-11-21T01:25:34.784Z,35.00
2022-11-21T01:26:35.090Z,32.90
2022-11-21T01:27:35.429Z,34.40
2022-11-21T01:28:35.726Z,36.40
2022-11-21T01:29:36.038Z,35.70
2022-11-21T01:30:36.304Z,34.10
2022-11-21T01:31:36.602Z,37.30
2022-11-21T01:32:36.916Z,39.50
2022-11-21T01:33:37.225Z,44.00
2022-11-21T01:34:37.607Z,61.40
2022-11-21T01:35:37.824Z,42.60
2022-11-21T01:36:38.151Z,37.20
2022-11-21T01:37:38.475Z,46.30
2022-11-21T01:38:38.801Z,36.00
2022-11-21T01:39:39.158Z,35.50
2022-11-21T01:40:39.597Z,31.70
2022-11-21T01:41:39.751Z,35.80
2022-11-21T01:42:40.084Z,35.90
2022-11-21T01:43:40.377Z,36.10
2022-11-21T01:44:40.695Z,35.30
2022-11-21T01:45:41.075Z,35.80
2022-11-21T01:46:41.335Z,33.10
2022-11-21T01:47:41.643Z,34.00
2022-11-21T01:48:41.952Z,31.20
2022-11-21T01:49:42.259Z,31.60
2022-11-21T01:50:42.605Z,31.50
2022-11-21T01:51:42.934Z,31.20
2022-11-21T01:52:43.251Z,29.80
2022-11-21T01:53:43.527Z,27.90
2022-11-21T01:54:43.843Z,28.10
2022-11-21T01:55:44.163Z,31.40
2022-11-21T01:56:45.446Z,30.00
2022-11-21T01:57:44.829Z,28.90
2022-11-21T01:58:45.130Z,27.80
2022-11-21T01:59:45.465Z,31.40
2022-11-21T02:00:45.846Z,28.90
2022-11-21T02:01:46.194Z,28.00
2022-11-21T02:02:46.435Z,28.40
2022-11-21T02:03:46.746Z,26.90
2022-11-21T02:04:47.050Z,29.50
2022-11-21T02:05:47.413Z,27.10
2022-11-21T02:06:47.713Z,29.00
2022-11-21T02:07:47.966Z,29.90
2022-11-21T02:08:48.288Z,29.50
2022-11-21T02:09:48.572Z,29.10
2022-11-21T02:10:48.893Z,29.60
2022-11-21T02:11:49.226Z,30.60
2022-11-21T02:12:49.529Z,30.30
2022-11-21T02:13:49.824Z,32.30
2022-11-21T02:14:50.272Z,34.80
2022-11-21T02:15:50.459Z,30.90
2022-11-21T02:16:50.790Z,32.10
2022-11-21T02:17:51.093Z,35.40
2022-11-21T02:18:51.413Z,46.70
2022-11-21T02:19:51.853Z,45.20
2022-11-21T02:20:52.031Z,46.10
2022-11-21T02:21:52.332Z,46.40
2022-11-21T02:22:52.645Z,45.90
2022-11-21T02:23:56.408Z,51.50
2022-11-21T02:24:53.423Z,46.80
2022-11-21T02:25:53.558Z,40.90
2022-11-21T02:26:53.955Z,49.10
2022-11-21T02:27:54.295Z,40.70
2022-11-21T02:28:54.458Z,42.30
2022-11-21T02:29:54.812Z,48.60
2022-11-21T02:30:55.076Z,50.90
2022-11-21T02:31:55.332Z,53.60
2022-11-21T02:32:55.615Z,44.60
2022-11-21T02:33:55.894Z,42.20
2022-11-21T02:34:56.368Z,44.90
2022-11-21T02:35:56.488Z,39.10
2022-11-21T02:36:56.739Z,34.10
2022-11-21T02:37:57.029Z,34.00
2022-11-21T02:38:57.319Z,32.00
2022-11-21T02:39:57.605Z,35.20
2022-11-21T02:40:58.037Z,32.40
2022-11-21T02:41:58.162Z,31.90
2022-11-21T02:42:58.476Z,31.30
2022-11-21T02:43:58.730Z,28.70
2022-11-21T02:44:59.018Z,29.50
2022-11-21T02:45:59.402Z,30.70
2022-11-21T02:46:59.582Z,28.90
2022-11-21T02:48:03.934Z,29.30
2022-11-21T02:49:00.169Z,30.80
2022-11-21T02:50:00.450Z,32.00
2022-11-21T02:51:00.755Z,31.40
2022-11-21T02:52:01.079Z,37.10
2022-11-21T02:53:01.303Z,38.90
2022-11-21T02:54:01.581Z,34.40
2022-11-21T02:55:01.880Z,29.60
2022-11-21T02:56:02.163Z,34.80
2022-11-21T02:57:02.495Z,33.40
2022-11-21T02:58:05.251Z,30.00
2022-11-21T02:59:03.048Z,27.60
2022-11-21T03:00:03.371Z,28.10
2022-11-21T03:01:03.672Z,30.30
2022-11-21T03:02:03.910Z,27.60
2022-11-21T03:03:04.203Z,28.70
2022-11-21T03:04:04.490Z,27.70
2022-11-21T03:05:04.867Z,27.20
2022-11-21T03:06:05.089Z,27.20
2022-11-21T03:07:05.418Z,27.40
2022-11-21T03:08:05.662Z,29.40
2022-11-21T03:09:05.958Z,27.90
2022-11-21T03:10:06.295Z,26.80
2022-11-21T03:11:06.561Z,27.50
2022-11-21T03:12:06.914Z,27.10
2022-11-21T03:13:07.203Z,29.10
2022-11-21T03:14:07.454Z,30.10
2022-11-21T03:15:07.752Z,30.90
2022-11-21T03:16:08.045Z,32.80
2022-11-21T03:17:08.377Z,31.30
2022-11-21T03:18:08.673Z,32.80
2022-11-21T03:19:09.006Z,32.50
2022-11-21T03:20:09.329Z,32.20
2022-11-21T03:21:09.658Z,33.30
2022-11-21T03:22:10.031Z,32.50
2022-11-21T03:23:10.312Z,31.10
2022-11-21T03:24:10.640Z,32.10
2022-11-21T03:25:10.963Z,31.60
2022-11-21T03:26:11.303Z,31.10
2022-11-21T03:27:11.774Z,29.80
2022-11-21T03:28:11.976Z,31.00
2022-11-21T03:29:12.282Z,30.10
2022-11-21T03:30:12.621Z,28.40
2022-11-21T03:31:12.937Z,30.20
2022-11-21T03:32:13.322Z,30.30
2022-11-21T03:33:13.582Z,30.10
2022-11-21T03:34:13.904Z,29.20
2022-11-21T03:35:14.222Z,31.30
2022-11-21T03:36:14.536Z,28.90
2022-11-21T03:37:14.871Z,29.00
2022-11-21T03:38:15.171Z,30.20
2022-11-21T03:39:15.512Z,29.90
2022-11-21T03:40:15.791Z,32.00
2022-11-21T03:41:16.122Z,30.40
2022-11-21T03:42:16.427Z,28.60
2022-11-21T03:43:16.773Z,29.60
2022-11-21T03:44:17.106Z,30.40
2022-11-21T03:45:17.389Z,28.30
2022-11-21T03:46:17.711Z,26.80
2022-11-21T03:47:18.036Z,28.90
2022-11-21T03:48:18.328Z,28.00
2022-11-21T03:49:18.652Z,26.20
2022-11-21T03:50:18.932Z,27.60
2022-11-21T03:51:19.237Z,27.20
2022-11-21T03:52:19.609Z,26.50
2022-11-21T03:53:19.875Z,26.60
2022-11-21T03:54:20.170Z,26.60
2022-11-21T03:55:20.467Z,27.20
2022-11-21T03:56:20.766Z,25.50
2022-11-21T03:57:21.097Z,26.90
2022-11-21T03:58:21.422Z,26.40
2022-11-21T03:59:21.652Z,25.40
2022-11-21T04:00:21.960Z,25.90
2022-11-21T04:01:22.310Z,24.50
2022-11-21T04:02:22.549Z,25.00
2022-11-21T04:03:22.814Z,25.00
2022-11-21T04:04:23.187Z,26.80
2022-11-21T04:05:23.382Z,24.70
2022-11-21T04:06:23.670Z,25.30
2022-11-21T04:07:23.989Z,25.00
2022-11-21T04:08:24.250Z,24.40
2022-11-21T04:09:24.660Z,26.20
2022-11-21T04:10:24.833Z,26.60
2022-11-21T04:11:25.143Z,26.80
2022-11-21T04:12:25.424Z,25.50
2022-11-21T04:13:25.749Z,26.60
2022-11-21T04:14:26.435Z,26.00
2022-11-21T04:15:26.316Z,26.30
2022-11-21T04:16:26.611Z,25.20
2022-11-21T04:17:26.901Z,25.10
2022-11-21T04:18:27.201Z,25.40
2022-11-21T04:19:27.602Z,26.10
2022-11-21T04:20:27.809Z,26.00
2022-11-21T04:21:28.108Z,27.30
2022-11-21T04:22:28.411Z,26.30
2022-11-21T04:23:28.727Z,26.80
2022-11-21T04:24:29.434Z,26.30
2022-11-21T04:25:29.334Z,26.40
2022-11-21T04:26:29.649Z,26.40
2022-11-21T04:27:29.954Z,27.00
2022-11-21T04:28:30.291Z,26.60
2022-11-21T04:29:31.312Z,25.20
2022-11-21T04:30:30.898Z,26.60
2022-11-21T04:31:31.212Z,26.60
2022-11-21T04:32:31.528Z,26.70
2022-11-21T04:33:31.837Z,27.50
2022-11-21T04:34:32.179Z,26.70
2022-11-21T04:35:32.442Z,27.20
2022-11-21T04:36:32.778Z,28.00
2022-11-21T04:37:33.053Z,28.20
2022-11-21T04:38:33.348Z,27.90
2022-11-21T04:39:33.701Z,27.20
2022-11-21T04:40:33.969Z,27.80
2022-11-21T04:41:34.403Z,26.70
2022-11-21T04:42:34.606Z,28.10
2022-11-21T04:43:34.953Z,28.00
2022-11-21T04:44:35.257Z,26.50
2022-11-21T04:45:35.580Z,28.00
2022-11-21T04:46:35.908Z,25.90
2022-11-21T04:47:36.311Z,28.20
2022-11-21T04:48:36.484Z,26.90
2022-11-21T04:49:36.793Z,27.70
2022-11-21T04:50:37.104Z,27.60
2022-11-21T04:51:37.407Z,28.10
2022-11-21T04:52:37.859Z,27.30
2022-11-21T04:53:42.689Z,28.50
2022-11-21T04:54:38.327Z,29.10
2022-11-21T04:55:38.629Z,27.00
2022-11-21T04:56:38.924Z,26.90
2022-11-21T04:57:39.306Z,27.70
2022-11-21T04:58:39.557Z,26.10
2022-11-21T04:59:39.836Z,27.70
2022-11-21T05:00:40.135Z,27.20
2022-11-21T05:01:40.503Z,28.30
2022-11-21T05:02:40.791Z,27.50
2022-11-21T05:03:41.083Z,27.70
2022-11-21T05:04:41.400Z,27.40
2022-11-21T05:05:41.699Z,29.10
2022-11-21T05:06:42.072Z,27.00
2022-11-21T05:07:42.340Z,26.70
2022-11-21T05:08:42.626Z,27.60
2022-11-21T05:09:42.922Z,27.40
2022-11-21T05:10:43.223Z,29.60
2022-11-21T05:11:43.592Z,28.60
2022-11-21T05:12:43.842Z,28.20
2022-11-21T05:13:44.187Z,26.70
2022-11-21T05:14:44.477Z,28.30
2022-11-21T05:15:44.798Z,27.70
2022-11-21T05:16:45.167Z,28.80
2022-11-21T05:17:45.413Z,27.20
2022-11-21T05:18:45.717Z,27.00
2022-11-21T05:19:46.022Z,26.50
2022-11-21T05:20:46.325Z,27.70
2022-11-21T05:21:46.664Z,26.50
2022-11-21T05:22:46.943Z,26.40
2022-11-21T05:23:47.303Z,27.50
2022-11-21T05:24:47.583Z,27.40
2022-11-21T05:25:47.890Z,27.70
2022-11-21T05:26:48.315Z,27.70
2022-11-21T05:27:48.518Z,27.20
2022-11-21T05:28:48.870Z,27.50
2022-11-21T05:29:49.131Z,26.80
2022-11-21T05:30:49.460Z,28.70
2022-11-21T05:31:49.783Z,29.20
2022-11-21T05:32:50.058Z,28.20
2022-11-21T05:33:50.354Z,30.00
2022-11-21T05:34:50.666Z,27.20
2022-11-21T05:35:51.061Z,27.20
2022-11-21T05:36:51.284Z,29.40
2022-11-21T05:37:51.582Z,30.20
2022-11-21T05:38:51.872Z,28.90
2022-11-21T05:39:52.192Z,28.40
2022-11-21T05:40:52.615Z,29.40
2022-11-21T05:41:52.814Z,27.00
2022-11-21T05:42:53.089Z,26.40
2022-11-21T05:43:53.494Z,27.70
2022-11-21T05:44:53.688Z,29.30
2022-11-21T05:45:54.003Z,27.80
2022-11-21T05:46:54.285Z,27.50
2022-11-21T05:47:54.577Z,26.60
2022-11-21T05:48:54.941Z,27.90
2022-11-21T05:49:55.193Z,27.80
2022-11-21T05:50:55.477Z,27.90
2022-11-21T05:51:55.796Z,27.40
2022-11-21T05:52:56.112Z,27.90
2022-11-21T05:53:56.458Z,27.90
2022-11-21T05:54:56.716Z,29.00
2022-11-21T05:55:57.082Z,29.40
2022-11-21T05:56:57.341Z,26.80
2022-11-21T05:57:57.650Z,29.60
2022-11-21T05:58:57.977Z,28.50
2022-11-21T05:59:58.244Z,28.50
2022-11-21T06:01:00.123Z,29.80
2022-11-21T06:01:58.835Z,30.30
2022-11-21T06:02:59.186Z,30.10
2022-11-21T06:03:59.437Z,29.40
2022-11-21T06:04:59.746Z,29.30
2022-11-21T06:06:00.100Z,27.60
2022-11-21T06:07:00.534Z,28.50
2022-11-21T06:08:00.681Z,30.10
2022-11-21T06:09:01.006Z,29.60
2022-11-21T06:10:01.318Z,28.90
2022-11-21T06:11:01.626Z,28.70
2022-11-21T06:12:02.072Z,30.60
2022-11-21T06:13:02.252Z,28.60
2022-11-21T06:14:02.585Z,27.40
2022-11-21T06:15:03.883Z,28.40
2022-11-21T06:16:03.172Z,30.50
2022-11-21T06:17:03.499Z,29.60
2022-11-21T06:18:03.787Z,30.30
2022-11-21T06:19:04.142Z,28.60
2022-11-21T06:20:04.422Z,30.90
2022-11-21T06:21:05.876Z,29.00
2022-11-21T06:22:05.077Z,30.60
2022-11-21T06:23:05.378Z,28.30
2022-11-21T06:24:07.850Z,30.80
2022-11-21T06:25:06.206Z,29.70
2022-11-21T06:26:06.324Z,29.00
2022-11-21T06:27:06.626Z,29.30
2022-11-21T06:28:06.919Z,29.70
2022-11-21T06:29:07.277Z,30.40
2022-11-21T06:30:07.504Z,29.80
2022-11-21T06:31:07.805Z,28.80
2022-11-21T06:32:08.097Z,28.60
2022-11-21T06:33:08.387Z,29.30
2022-11-21T06:34:08.727Z,28.70
2022-11-21T06:35:08.995Z,28.10
2022-11-21T06:36:09.275Z,29.90
2022-11-21T06:37:09.581Z,28.70
2022-11-21T06:38:09.866Z,28.20
2022-11-21T06:39:10.241Z,29.60
2022-11-21T06:40:10.463Z,30.00
2022-11-21T06:41:10.758Z,29.10
2022-11-21T06:42:11.062Z,29.40
2022-11-21T06:43:11.362Z,29.20
2022-11-21T06:44:11.700Z,28.80
2022-11-21T06:45:11.967Z,30.50
2022-11-21T06:46:12.232Z,29.10
2022-11-21T06:47:12.544Z,28.50
2022-11-21T06:48:12.805Z,29.30
2022-11-21T06:49:13.155Z,28.50
2022-11-21T06:50:13.417Z,27.70
2022-11-21T06:51:13.712Z,28.50
2022-11-21T06:52:14.021Z,28.70
2022-11-21T06:53:14.328Z,27.40
2022-11-21T06:54:28.470Z,28.70
2022-11-21T06:55:14.943Z,28.10
2022-11-21T06:56:15.290Z,27.60
2022-11-21T06:57:15.597Z,28.40
2022-11-21T06:58:15.885Z,28.20
2022-11-21T06:59:16.274Z,28.10
2022-11-21T07:00:16.521Z,28.40
2022-11-21T07:01:16.842Z,28.10
2022-11-21T07:02:17.085Z,29.10
2022-11-21T07:03:17.395Z,30.10
2022-11-21T07:04:17.701Z,28.50
2022-11-21T07:05:18.055Z,29.40
2022-11-21T07:06:18.348Z,28.70
2022-11-21T07:07:18.747Z,28.90
2022-11-21T07:08:18.965Z,29.00
2022-11-21T07:09:33.261Z,30.10
2022-11-21T07:10:19.569Z,29.70
2022-11-21T07:11:26.993Z,29.30
2022-11-21T07:12:20.189Z,28.90
2022-11-21T07:13:20.441Z,29.90
2022-11-21T07:14:20.762Z,30.30
2022-11-21T07:15:21.024Z,29.20
2022-11-21T07:16:21.386Z,28.80
2022-11-21T07:17:21.613Z,29.50
2022-11-21T07:18:21.896Z,30.70
2022-11-21T07:19:22.197Z,30.80
2022-11-21T07:20:22.518Z,28.80
2022-11-21T07:21:22.834Z,29.70
2022-11-21T07:22:23.093Z,30.30
2022-11-21T07:23:23.424Z,30.80
2022-11-21T07:24:23.699Z,29.90
2022-11-21T07:25:23.990Z,30.90
2022-11-21T07:26:24.315Z,31.20
2022-11-21T07:27:24.616Z,32.50
2022-11-21T07:28:24.884Z,30.80
2022-11-21T07:29:25.551Z,31.40
2022-11-21T07:30:25.479Z,32.00
2022-11-21T07:31:25.790Z,32.30
2022-11-21T07:32:26.048Z,31.10
2022-11-21T07:33:26.337Z,32.50
2022-11-21T07:34:26.658Z,31.70
2022-11-21T07:35:26.924Z,32.40
2022-11-21T07:36:27.217Z,33.70
2022-11-21T07:37:27.517Z,34.60
2022-11-21T07:38:27.814Z,34.90
2022-11-21T07:39:28.687Z,34.70
2022-11-21T07:40:28.532Z,32.50
2022-11-21T07:41:28.714Z,35.30
2022-11-21T07:42:29.010Z,32.60
2022-11-21T07:43:29.312Z,33.50
2022-11-21T07:44:29.765Z,30.90
2022-11-21T07:45:29.896Z,33.00
2022-11-21T07:46:30.191Z,34.80
2022-11-21T07:47:30.473Z,33.30
2022-11-21T07:48:30.770Z,33.90
2022-11-21T07:49:31.483Z,31.40
2022-11-21T07:50:31.323Z,32.50
2022-11-21T07:51:31.617Z,32.00
2022-11-21T07:52:31.886Z,32.60
2022-11-21T07:53:32.180Z,32.60
2022-11-21T07:54:32.501Z,32.80
2022-11-21T07:55:37.704Z,31.90
2022-11-21T07:56:33.107Z,33.10
2022-11-21T07:57:33.308Z,31.00
2022-11-21T07:58:33.596Z,32.90
2022-11-21T07:59:33.937Z,33.30
2022-11-21T08:00:34.199Z,33.90
2022-11-21T08:01:34.504Z,31.00
2022-11-21T08:02:34.714Z,32.40
2022-11-21T08:03:35.002Z,32.90
2022-11-21T08:04:35.263Z,33.30
2022-11-21T08:05:35.605Z,33.60
2022-11-21T08:06:35.818Z,34.20
2022-11-21T08:07:36.197Z,31.70
2022-11-21T08:08:36.419Z,32.50
2022-11-21T08:09:39.775Z,33.20
2022-11-21T08:10:36.995Z,32.00
2022-11-21T08:11:37.227Z,33.60
2022-11-21T08:12:37.505Z,32.90
2022-11-21T08:13:37.769Z,32.60
2022-11-21T08:14:38.051Z,33.20
2022-11-21T08:15:38.317Z,34.30
2022-11-21T08:16:38.547Z,33.50
2022-11-21T08:17:38.801Z,34.30
2022-11-21T08:18:39.070Z,32.00
2022-11-21T08:19:39.346Z,33.90
2022-11-21T08:20:39.702Z,31.90
2022-11-21T08:21:39.894Z,33.10
2022-11-21T08:22:40.172Z,33.30
2022-11-21T08:23:40.457Z,32.50
2022-11-21T08:24:40.743Z,30.70
2022-11-21T08:25:41.056Z,32.80
2022-11-21T08:26:41.311Z,32.70
2022-11-21T08:27:41.608Z,31.10
2022-11-21T08:28:41.959Z,33.00
2022-11-21T08:29:42.265Z,33.50
2022-11-21T08:30:42.546Z,33.10
2022-11-21T08:31:42.859Z,30.70
2022-11-21T08:32:43.312Z,32.00
2022-11-21T08:33:43.505Z,31.50
2022-11-21T08:34:43.786Z,30.30
2022-11-21T08:35:44.092Z,29.30
2022-11-21T08:36:44.440Z,29.20
2022-11-21T08:37:44.750Z,30.60
2022-11-21T08:38:45.034Z,29.90
2022-11-21T08:39:45.356Z,30.10
2022-11-21T08:40:45.705Z,31.00
2022-11-21T08:41:45.994Z,31.20
2022-11-21T08:42:46.307Z,30.40
2022-11-21T08:43:46.626Z,30.00
2022-11-21T08:44:46.963Z,30.30
2022-11-21T08:45:47.326Z,30.40
2022-11-21T08:46:47.570Z,31.00
2022-11-21T08:47:47.883Z,32.20
2022-11-21T08:48:48.192Z,30.00
2022-11-21T08:49:48.501Z,30.70
2022-11-21T08:50:48.934Z,32.40
2022-11-21T08:51:49.103Z,30.20
2022-11-21T08:52:49.407Z,31.30
2022-11-21T08:53:49.693Z,32.10
2022-11-21T08:54:50.001Z,31.80
2022-11-21T08:55:50.334Z,32.80
2022-11-21T08:56:50.615Z,31.60
2022-11-21T08:57:50.991Z,32.40
2022-11-21T08:58:51.251Z,33.10
2022-11-21T08:59:51.592Z,33.40
2022-11-21T09:00:51.932Z,31.70
2022-11-21T09:01:52.233Z,32.20
2022-11-21T09:02:52.553Z,32.20
2022-11-21T09:03:52.798Z,31.00
2022-11-21T09:04:53.112Z,31.60
2022-11-21T09:05:53.466Z,32.90
2022-11-21T09:06:53.752Z,31.90
2022-11-21T09:07:54.029Z,31.40
2022-11-21T09:08:54.328Z,32.10
2022-11-21T09:09:54.622Z,34.00
2022-11-21T09:10:54.965Z,33.30
2022-11-21T09:11:55.242Z,32.70
2022-11-21T09:12:55.501Z,32.90
2022-11-21T09:13:55.788Z,31.30
2022-11-21T09:14:56.102Z,33.20
2022-11-21T09:15:56.379Z,33.10
2022-11-21T09:17:00.788Z,31.70
2022-11-21T09:17:56.976Z,31.80
2022-11-21T09:18:57.301Z,31.50
2022-11-21T09:19:57.658Z,30.80
2022-11-21T09:20:59.064Z,32.20
2022-11-21T09:21:58.242Z,32.70
2022-11-21T09:22:58.554Z,32.00
2022-11-21T09:23:58.829Z,31.00
2022-11-21T09:24:59.138Z,33.00
2022-11-21T09:25:59.438Z,32.50
2022-11-21T09:26:59.722Z,30.90
2022-11-21T09:28:00.052Z,28.40
2022-11-21T09:29:00.562Z,30.60
2022-11-21T09:30:00.629Z,30.30
2022-11-21T09:31:00.906Z,31.30
2022-11-21T09:32:01.200Z,31.30
2022-11-21T09:33:01.515Z,29.50
2022-11-21T09:34:01.844Z,30.00
2022-11-21T09:35:02.096Z,30.70
2022-11-21T09:36:02.389Z,30.20
2022-11-21T09:37:02.696Z,29.80
2022-11-21T09:38:03.003Z,28.90
2022-11-21T09:39:03.429Z,29.00
2022-11-21T09:40:03.603Z,28.60
2022-11-21T09:41:03.898Z,28.90
2022-11-21T09:42:04.207Z,30.80
2022-11-21T09:43:04.521Z,29.40
2022-11-21T09:44:04.864Z,29.10
2022-11-21T09:45:05.200Z,29.20
2022-11-21T09:46:05.493Z,31.70
2022-11-21T09:47:05.729Z,29.30
2022-11-21T09:48:06.018Z,27.70
2022-11-21T09:49:06.342Z,29.10
2022-11-21T09:50:06.672Z,30.00
2022-11-21T09:51:06.940Z,30.50
2022-11-21T09:52:07.195Z,30.90
2022-11-21T09:53:07.492Z,29.80
2022-11-21T09:54:07.796Z,29.10
2022-11-21T09:55:08.105Z,32.90
2022-11-21T09:56:08.494Z,31.40
2022-11-21T09:57:08.754Z,30.30
2022-11-21T09:58:09.042Z,30.40
2022-11-21T09:59:09.359Z,30.40
2022-11-21T10:00:09.692Z,30.40
2022-11-21T10:01:10.100Z,31.40
2022-11-21T10:02:10.356Z,28.30
2022-11-21T10:03:10.633Z,28.70
2022-11-21T10:04:10.955Z,31.50
2022-11-21T10:05:11.259Z,29.70
2022-11-21T10:06:11.537Z,30.30
2022-11-21T10:07:12.113Z,30.30
2022-11-21T10:08:12.099Z,29.80
2022-11-21T10:09:12.365Z,32.60
2022-11-21T10:10:12.642Z,31.50
2022-11-21T10:11:19.444Z,28.80
2022-11-21T10:12:13.228Z,30.60
2022-11-21T10:13:13.471Z,31.10
2022-11-21T10:14:13.761Z,31.00
2022-11-21T10:15:14.083Z,32.10
2022-11-21T10:16:14.346Z,31.50
2022-11-21T10:17:14.661Z,30.70
2022-11-21T10:18:14.963Z,31.20
2022-11-21T10:19:15.211Z,31.50
2022-11-21T10:20:15.478Z,33.60
2022-11-21T10:21:15.873Z,31.60
2022-11-21T10:22:16.055Z,31.50
2022-11-21T10:23:16.425Z,33.70
2022-11-21T10:24:16.596Z,33.60
2022-11-21T10:25:16.880Z,32.00
2022-11-21T10:26:17.151Z,34.00
2022-11-21T10:27:17.426Z,31.30
2022-11-21T10:28:17.725Z,32.00
2022-11-21T10:29:17.967Z,32.20
2022-11-21T10:30:18.374Z,32.40
2022-11-21T10:31:18.581Z,32.50
2022-11-21T10:32:18.782Z,31.40
2022-11-21T10:33:19.085Z,31.20
2022-11-21T10:34:19.352Z,33.40
2022-11-21T10:35:19.587Z,32.50
2022-11-21T10:36:19.855Z,31.80
2022-11-21T10:37:20.117Z,32.20
2022-11-21T10:38:20.413Z,32.30
2022-11-21T10:39:20.695Z,30.40
2022-11-21T10:40:20.968Z,29.40
2022-11-21T10:41:21.254Z,31.60
2022-11-21T10:42:24.526Z,28.20
2022-11-21T10:43:21.856Z,27.40
2022-11-21T10:44:22.177Z,26.60
2022-11-21T10:45:22.452Z,26.90
2022-11-21T10:46:22.713Z,27.90
2022-11-21T10:47:23.013Z,30.40
2022-11-21T10:48:23.303Z,27.90
2022-11-21T10:49:23.615Z,29.20
2022-11-21T10:50:23.882Z,29.00
2022-11-21T10:51:24.167Z,28.80
2022-11-21T10:52:24.440Z,28.30
2022-11-21T10:53:24.722Z,27.80
2022-11-21T10:54:25.151Z,28.50
2022-11-21T10:55:25.327Z,26.70
2022-11-21T10:56:25.593Z,28.90
2022-11-21T10:57:25.890Z,29.20
2022-11-21T10:58:26.178Z,28.40
2022-11-21T10:59:30.517Z,28.60
2022-11-21T11:00:26.818Z,29.90
2022-11-21T11:01:27.201Z,28.00
2022-11-21T11:02:27.335Z,30.00
2022-11-21T11:03:27.635Z,28.80
2022-11-21T11:04:29.667Z,29.60
2022-11-21T11:05:28.226Z,27.50
2022-11-21T11:06:28.523Z,29.80
2022-11-21T11:07:28.909Z,29.50
2022-11-21T11:08:29.111Z,30.50
2022-11-21T11:09:29.439Z,29.50
2022-11-21T11:10:29.691Z,29.00
2022-11-21T11:11:29.984Z,29.80
2022-11-21T11:12:30.296Z,30.20
2022-11-21T11:13:47.244Z,30.10
2022-11-21T11:14:30.955Z,30.40
2022-11-21T11:15:31.198Z,28.50
2022-11-21T11:16:31.445Z,29.30
2022-11-21T11:17:31.738Z,28.40
2022-11-21T11:18:32.073Z,30.30
2022-11-21T11:19:38.686Z,29.80
2022-11-21T11:20:32.623Z,32.30
2022-11-21T11:21:32.845Z,31.20
2022-11-21T11:22:33.137Z,29.30
